Terminal Aerodrome Forecast
Issued by NWS Louisville, KY

Home | Current Version | Previous Version | Text Only | Print | Product List | Glossary On
Versions: 1 2 3 4 5 6 7 8 9 10 11 12 13 14 15 16 17
000
FTUS43 KLMK 311500 AAA
TAFLEX
TAF AMD
KLEX 311512Z 3115/0112 23012KT P6SM BKN025 BKN100
     FM312300 32012KT P6SM SCT035 BKN150
     FM010400 01004KT P6SM BKN011
      TEMPO 0109/0112 5SM BR BKN007 OVC011=

USA.gov is the U.S. government's official web portal to all federal, state and local government web resources and services.